createdAt,value
2023-01-15T00:00:00.594Z,181.1
2023-01-15T00:05:00.687Z,191.2
2023-01-15T00:10:00.693Z,193.1
2023-01-15T00:15:00.713Z,190.6
2023-01-15T00:20:00.535Z,191.6
2023-01-15T00:25:00.692Z,193.6
2023-01-15T00:30:00.778Z,183.2
2023-01-15T00:35:00.648Z,190.9
2023-01-15T00:40:00.539Z,188.6
2023-01-15T00:45:01.212Z,180.6
2023-01-15T00:50:00.693Z,190.3
2023-01-15T00:55:01.864Z,188.9
2023-01-15T01:00:00.569Z,185.5
2023-01-15T01:05:00.765Z,192.2
2023-01-15T01:10:00.578Z,188.1
2023-01-15T01:15:00.701Z,179.2
2023-01-15T01:20:00.597Z,188.6
2023-01-15T01:25:00.726Z,197.2
2023-01-15T01:30:00.596Z,189.7
2023-01-15T01:35:00.705Z,194.3
2023-01-15T01:40:00.604Z,191.2
2023-01-15T01:45:00.752Z,194.8
2023-01-15T01:50:00.586Z,179.4
2023-01-15T01:55:00.895Z,188.8
2023-01-15T02:00:00.536Z,186.6
2023-01-15T02:05:00.712Z,200.7
2023-01-15T02:10:00.561Z,184.6
2023-01-15T02:15:00.695Z,187.6
2023-01-15T02:20:00.808Z,191.6
2023-01-15T02:25:00.642Z,199.3
2023-01-15T02:30:00.578Z,191.2
2023-01-15T02:35:01.030Z,190.1
2023-01-15T02:40:00.580Z,183.1
2023-01-15T02:45:00.701Z,181.9
2023-01-15T02:50:00.542Z,191.0
2023-01-15T02:55:00.684Z,191.0
2023-01-15T03:00:00.591Z,198.9
2023-01-15T03:05:00.706Z,199.9
2023-01-15T03:10:00.542Z,194.0
2023-01-15T03:15:00.702Z,196.5
2023-01-15T03:20:00.747Z,228.9
2023-01-15T03:25:00.689Z,248.8
2023-01-15T03:30:00.721Z,252.8
2023-01-15T03:35:00.694Z,242.2
2023-01-15T03:40:00.667Z,243.7
2023-01-15T03:45:00.702Z,255.2
2023-01-15T03:50:00.727Z,277.9
2023-01-15T03:55:00.793Z,282.7
2023-01-15T04:00:00.582Z,271.7
2023-01-15T04:05:00.764Z,274.1
2023-01-15T04:10:00.551Z,251.0
2023-01-15T04:15:00.706Z,264.7
2023-01-15T04:20:00.550Z,257.6
2023-01-15T04:25:00.714Z,254.8
2023-01-15T04:30:00.690Z,245.1
2023-01-15T04:35:00.698Z,246.6
2023-01-15T04:40:00.569Z,242.2
2023-01-15T04:45:00.728Z,240.3
2023-01-15T04:50:00.550Z,238.4
2023-01-15T04:55:00.710Z,245.7
2023-01-15T05:00:00.602Z,238.1
2023-01-15T05:05:00.714Z,232.4
2023-01-15T05:10:00.538Z,238.6
2023-01-15T05:15:00.728Z,242.1
2023-01-15T05:20:00.582Z,224.9
2023-01-15T05:25:00.703Z,244.9
2023-01-15T05:30:00.574Z,211.5
2023-01-15T05:35:00.715Z,243.1
2023-01-15T05:40:00.538Z,239.4
2023-01-15T05:45:00.712Z,204.3
2023-01-15T05:50:00.526Z,210.1
2023-01-15T05:55:00.705Z,187.8
2023-01-15T06:00:00.584Z,190.3
2023-01-15T06:05:00.683Z,191.4
2023-01-15T06:10:00.559Z,171.7
2023-01-15T06:15:00.717Z,184.3
2023-01-15T06:20:00.569Z,183.8
2023-01-15T06:25:00.738Z,187.0
2023-01-15T06:30:00.541Z,183.0
2023-01-15T06:35:00.705Z,187.6
2023-01-15T06:40:00.583Z,199.7
2023-01-15T06:45:00.864Z,189.4
2023-01-15T06:50:00.683Z,186.6
2023-01-15T06:55:00.708Z,194.4
2023-01-15T07:00:00.548Z,194.9
2023-01-15T07:05:00.705Z,188.5
2023-01-15T07:10:00.552Z,200.3
2023-01-15T07:15:00.701Z,186.9
2023-01-15T07:20:00.528Z,183.2
2023-01-15T07:25:00.677Z,180.4
2023-01-15T07:30:00.548Z,185.8
2023-01-15T07:35:00.699Z,187.9
2023-01-15T07:40:00.586Z,187.5
2023-01-15T07:45:00.799Z,192.9
2023-01-15T07:50:00.546Z,186.6
2023-01-15T07:55:00.703Z,194.5
2023-01-15T08:00:00.559Z,185.7
2023-01-15T08:05:00.737Z,189.6
2023-01-15T08:10:00.608Z,180.4
2023-01-15T08:15:00.680Z,187.0
2023-01-15T08:20:00.531Z,184.3
2023-01-15T08:25:00.722Z,190.3
2023-01-15T08:30:00.790Z,179.4
2023-01-15T08:35:00.646Z,191.7
2023-01-15T08:40:00.681Z,198.9
2023-01-15T08:45:00.701Z,190.6
2023-01-15T08:50:00.606Z,193.3
2023-01-15T08:55:00.720Z,176.4
2023-01-15T09:00:00.596Z,200.6
2023-01-15T09:05:01.098Z,190.2
2023-01-15T09:10:00.662Z,199.1
2023-01-15T09:15:03.853Z,188.2
2023-01-15T09:20:00.749Z,196.3
2023-01-15T09:25:00.719Z,189.8
2023-01-15T09:30:00.555Z,188.5
2023-01-15T09:35:00.684Z,194.7
2023-01-15T09:40:00.575Z,192.6
2023-01-15T09:45:00.683Z,196.3
2023-01-15T09:50:00.574Z,191.4
2023-01-15T09:55:00.693Z,193.2
2023-01-15T10:00:00.556Z,190.7
2023-01-15T10:05:01.051Z,198.1
2023-01-15T10:10:00.870Z,200.2
2023-01-15T10:15:00.686Z,185.9
2023-01-15T10:20:00.595Z,195.2
2023-01-15T10:25:00.718Z,208.7
2023-01-15T10:30:00.667Z,198.7
2023-01-15T10:35:00.687Z,195.8
2023-01-15T10:40:00.540Z,191.6
2023-01-15T10:45:00.701Z,195.7
2023-01-15T10:50:00.560Z,192.9
2023-01-15T10:55:02.672Z,194.5
2023-01-15T11:00:00.568Z,195.3
2023-01-15T11:05:00.688Z,202.8
2023-01-15T11:10:00.538Z,198.6
2023-01-15T11:15:00.751Z,193.8
2023-01-15T11:20:00.568Z,195.2
2023-01-15T11:25:00.735Z,191.1
2023-01-15T11:30:00.548Z,192.9
2023-01-15T11:35:00.844Z,198.4
2023-01-15T11:40:00.576Z,198.2
2023-01-15T11:45:00.708Z,195.2
2023-01-15T11:50:00.535Z,188.8
2023-01-15T11:55:00.695Z,202.7
2023-01-15T12:00:00.587Z,193.5
2023-01-15T12:05:02.708Z,187.4
2023-01-15T12:10:00.688Z,191.4
2023-01-15T12:15:02.712Z,184.0
2023-01-15T12:20:00.611Z,194.9
2023-01-15T12:25:00.716Z,192.3
2023-01-15T12:30:00.584Z,194.7
2023-01-15T12:35:00.732Z,206.1
2023-01-15T12:40:00.561Z,189.9
2023-01-15T12:45:00.767Z,191.9
2023-01-15T12:50:00.699Z,200.7
2023-01-15T12:55:00.781Z,198.4
2023-01-15T13:00:00.579Z,190.0
2023-01-15T13:05:00.695Z,190.3
2023-01-15T13:10:00.560Z,189.8
2023-01-15T13:15:00.713Z,192.4
2023-01-15T13:20:00.615Z,202.0
2023-01-15T13:25:00.764Z,193.9
2023-01-15T13:30:00.630Z,195.3
2023-01-15T13:35:00.696Z,195.3
2023-01-15T13:40:00.746Z,199.8
2023-01-15T13:45:00.747Z,197.3
2023-01-15T13:50:00.552Z,204.3
2023-01-15T13:55:00.725Z,199.0
2023-01-15T14:00:00.560Z,201.6
2023-01-15T14:05:00.706Z,197.5
2023-01-15T14:10:00.535Z,202.3
2023-01-15T14:15:02.673Z,199.5
2023-01-15T14:20:00.568Z,207.7
2023-01-15T14:25:00.717Z,201.8
2023-01-15T14:30:00.705Z,208.8
2023-01-15T14:35:00.715Z,205.9
2023-01-15T14:40:00.617Z,200.8
2023-01-15T14:45:02.687Z,204.8
2023-01-15T14:50:00.579Z,199.5
2023-01-15T14:55:00.722Z,199.7
2023-01-15T15:00:00.718Z,189.9
2023-01-15T15:05:00.735Z,192.5
2023-01-15T15:10:00.613Z,202.7
2023-01-15T15:15:00.752Z,194.8
2023-01-15T15:20:00.599Z,181.8
2023-01-15T15:25:00.811Z,192.4
2023-01-15T15:30:00.545Z,193.0
2023-01-15T15:35:00.700Z,192.5
2023-01-15T15:40:00.913Z,205.3
2023-01-15T15:45:00.865Z,189.9
2023-01-15T15:50:00.901Z,198.4
2023-01-15T15:55:00.703Z,205.8
2023-01-15T16:00:00.852Z,192.8
2023-01-15T16:05:00.704Z,190.2
2023-01-15T16:10:00.649Z,191.4
2023-01-15T16:15:00.693Z,199.5
2023-01-15T16:20:00.638Z,190.2
2023-01-15T16:25:00.720Z,198.7
2023-01-15T16:30:00.579Z,201.9
2023-01-15T16:35:00.860Z,199.3
2023-01-15T16:40:00.927Z,190.6
2023-01-15T16:45:00.737Z,190.9
2023-01-15T16:50:00.536Z,193.1
2023-01-15T16:55:00.726Z,192.6
2023-01-15T17:00:00.592Z,200.7
2023-01-15T17:05:02.881Z,196.2
2023-01-15T17:10:00.589Z,191.5
2023-01-15T17:15:00.693Z,204.0
2023-01-15T17:20:00.543Z,194.3
2023-01-15T17:25:00.832Z,197.9
2023-01-15T17:30:00.547Z,189.0
2023-01-15T17:35:00.828Z,193.1
2023-01-15T17:40:00.590Z,196.9
2023-01-15T17:45:00.717Z,197.3
2023-01-15T17:50:00.612Z,194.5
2023-01-15T17:55:00.724Z,200.8
2023-01-15T18:00:00.639Z,205.4
2023-01-15T18:05:02.659Z,194.8
2023-01-15T18:10:00.588Z,188.9
2023-01-15T18:15:00.715Z,192.2
2023-01-15T18:20:00.570Z,187.6
2023-01-15T18:25:00.751Z,201.6
2023-01-15T18:30:00.602Z,187.2
2023-01-15T18:35:00.737Z,202.2
2023-01-15T18:40:00.537Z,193.0
2023-01-15T18:45:00.717Z,202.9
2023-01-15T18:50:00.543Z,201.3
2023-01-15T18:55:00.708Z,194.3
2023-01-15T19:00:00.535Z,192.0
2023-01-15T19:05:00.719Z,200.8
2023-01-15T19:10:00.583Z,199.4
2023-01-15T19:15:00.715Z,202.2
2023-01-15T19:20:00.630Z,195.9
2023-01-15T19:25:00.750Z,192.5
2023-01-15T19:30:00.657Z,200.6
2023-01-15T19:35:00.729Z,202.2
2023-01-15T19:40:00.595Z,191.0
2023-01-15T19:45:00.777Z,202.2
2023-01-15T19:50:00.540Z,181.6
2023-01-15T19:55:00.761Z,200.0
2023-01-15T20:00:00.575Z,196.0
2023-01-15T20:05:00.695Z,189.8
2023-01-15T20:10:00.701Z,195.6
2023-01-15T20:15:00.747Z,190.4
2023-01-15T20:20:00.585Z,202.8
2023-01-15T20:25:00.717Z,198.1
2023-01-15T20:30:00.565Z,194.3
2023-01-15T20:35:00.719Z,194.0
2023-01-15T20:40:00.699Z,196.9
2023-01-15T20:45:00.794Z,201.2
2023-01-15T20:50:00.546Z,202.5
2023-01-15T20:55:00.711Z,192.6
2023-01-15T21:00:00.600Z,195.6
2023-01-15T21:05:00.784Z,204.0
2023-01-15T21:10:00.577Z,196.9
2023-01-15T21:15:00.702Z,197.0
2023-01-15T21:20:00.705Z,205.0
2023-01-15T21:25:00.700Z,199.7
2023-01-15T21:30:00.565Z,189.8
2023-01-15T21:35:00.734Z,193.8
2023-01-15T21:40:00.543Z,192.0
2023-01-15T21:45:00.828Z,199.9
2023-01-15T21:50:00.558Z,196.1
2023-01-15T21:55:00.776Z,202.1
2023-01-15T22:00:00.551Z,196.3
2023-01-15T22:05:00.697Z,197.6
2023-01-15T22:10:00.731Z,189.4
2023-01-15T22:15:00.665Z,199.1
2023-01-15T22:20:00.549Z,192.8
2023-01-15T22:25:00.730Z,195.4
2023-01-15T22:30:00.569Z,197.4
2023-01-15T22:35:00.745Z,188.9
2023-01-15T22:40:00.544Z,201.3
2023-01-15T22:45:01.273Z,187.9
2023-01-15T22:50:00.556Z,192.3
2023-01-15T22:55:01.045Z,196.3
2023-01-15T23:00:00.630Z,191.7
2023-01-15T23:05:00.697Z,197.2
2023-01-15T23:10:00.573Z,196.9
2023-01-15T23:15:00.851Z,197.3
2023-01-15T23:20:00.549Z,192.4
2023-01-15T23:25:00.748Z,191.0
2023-01-15T23:30:00.627Z,197.4
2023-01-15T23:35:00.710Z,202.0
2023-01-15T23:40:00.643Z,182.1
2023-01-15T23:45:05.758Z,193.0
2023-01-15T23:50:00.546Z,197.0
2023-01-15T23:55:00.720Z,192.5
